Huvudsida
METAR-TAF:

METAR-TAF

Flygplatser :

Ålesunds flygplats. Vigra

Ålesund, Norge

latitud: 62-34N, longitud: 006-07E, höjd: 2 m

Aktuellt väderrapport

Denna rapport gjordes för 22 minuter sedan, klockan 00:50 UTC
Vind 18 kt från väst/sydväst
Temperatur 8°C
Fuktighet 93%
Tryck 1024 hPa
Sikt: 9000 m
duggregn

METAR: ENAL 210050Z AUTO 24018KT 9000 DZ SCT006/// BKN008/// BKN009/// 08/07 Q1024

Tid: 03:12 (01:12 UTC)

Väderprognos

Denna rapport gjordes för 8 timmar och 12 minuter sedan, klockan 17:00 UTC
Prognos gäller från 20 kl. 18 UTC till 20 kl. 21 UTC
Vind 20 kt från väst/sydväst
Sikt 10 km eller mer
Spridda moln på en höjd av 2500 ft
Brutna moln på en höjd av 5000 ft
lätt regn
Sannolikhet 30%
från 20 kl. 18 UTC till 20 kl. 21 UTC
Sikt: 4000 m
Brutna moln på en höjd av 1200 ft
regn, duggregn

TAF: ENAL 201700Z 2018/2021 24020KT 9999 -RA SCT025 BKN050 PROB30 2018/2021 4000 RADZ BKN012

Aktuella väderrapporter och prognoser från 4000 flygplatser (METAR- och TAF-rapporter).

De tillgängliga stationerna syns som gula och röda prickar på kartan.

För musen över prickarna för att se namnen på stationerna.

Klicka sedan för att få väderrapporter och prognoser.

För att ändra kartan: Klicka på de gröna knapparna med ett svart kors på för att zooma in; den gröna knappen med ett streck på för att zooma ut; eller på de gröna pilarna för angränsande kartor.


METAR-TAF: